sensor_id;sensor_type;location;lat;lon;timestamp;pressure;altitude;pressure_sealevel;temperature;humidity
75045;BME280;63614;56.026;35.960;2023-04-10T00:02:17;100089.13;;;8.99;53.65
75045;BME280;63614;56.026;35.960;2023-04-10T00:04:43;100096.59;;;9.02;54.26
75045;BME280;63614;56.026;35.960;2023-04-10T00:07:09;100079.56;;;8.99;53.68
75045;BME280;63614;56.026;35.960;2023-04-10T00:09:35;100086.69;;;8.97;54.24
75045;BME280;63614;56.026;35.960;2023-04-10T00:12:01;100080.34;;;8.91;54.29
75045;BME280;63614;56.026;35.960;2023-04-10T00:14:27;100077.44;;;9.03;53.58
75045;BME280;63614;56.026;35.960;2023-04-10T00:16:53;100072.25;;;9.03;53.61
75045;BME280;63614;56.026;35.960;2023-04-10T00:19:18;100065.47;;;9.02;53.82
75045;BME280;63614;56.026;35.960;2023-04-10T00:21:44;100068.84;;;9.02;54.10
75045;BME280;63614;56.026;35.960;2023-04-10T00:24:10;100071.28;;;9.04;53.67
75045;BME280;63614;56.026;35.960;2023-04-10T00:26:36;100076.00;;;9.08;53.65
75045;BME280;63614;56.026;35.960;2023-04-10T00:29:02;100080.22;;;9.09;53.82
75045;BME280;63614;56.026;35.960;2023-04-10T00:31:29;100083.78;;;9.08;54.31
75045;BME280;63614;56.026;35.960;2023-04-10T00:33:54;100077.97;;;9.15;54.00
75045;BME280;63614;56.026;35.960;2023-04-10T00:36:20;100083.31;;;9.13;53.55
75045;BME280;63614;56.026;35.960;2023-04-10T00:38:46;100074.22;;;9.17;52.14
75045;BME280;63614;56.026;35.960;2023-04-10T00:41:12;100080.88;;;9.12;54.26
75045;BME280;63614;56.026;35.960;2023-04-10T00:43:38;100079.41;;;9.09;53.90
75045;BME280;63614;56.026;35.960;2023-04-10T00:46:04;100083.16;;;9.15;53.75
75045;BME280;63614;56.026;35.960;2023-04-10T00:48:31;100086.56;;;9.23;54.74
75045;BME280;63614;56.026;35.960;2023-04-10T00:50:57;100085.44;;;9.26;54.88
75045;BME280;63614;56.026;35.960;2023-04-10T00:53:22;100092.06;;;9.20;55.57
75045;BME280;63614;56.026;35.960;2023-04-10T00:55:49;100095.66;;;9.11;56.54
75045;BME280;63614;56.026;35.960;2023-04-10T00:58:15;100090.78;;;9.08;55.83
75045;BME280;63614;56.026;35.960;2023-04-10T01:00:41;100093.38;;;9.16;55.77
75045;BME280;63614;56.026;35.960;2023-04-10T01:03:11;100100.69;;;9.21;56.50
75045;BME280;63614;56.026;35.960;2023-04-10T01:11:53;100103.09;;;9.14;56.22
75045;BME280;63614;56.026;35.960;2023-04-10T01:17:31;100106.81;;;9.03;57.21
75045;BME280;63614;56.026;35.960;2023-04-10T01:20:08;100122.38;;;8.95;57.95
75045;BME280;63614;56.026;35.960;2023-04-10T01:22:41;100131.03;;;8.69;58.72
75045;BME280;63614;56.026;35.960;2023-04-10T01:30:50;100143.09;;;8.44;59.42
75045;BME280;63614;56.026;35.960;2023-04-10T01:33:19;100140.84;;;8.49;57.00
75045;BME280;63614;56.026;35.960;2023-04-10T01:35:52;100148.81;;;8.56;60.59
75045;BME280;63614;56.026;35.960;2023-04-10T01:38:21;100135.03;;;8.56;64.48
75045;BME280;63614;56.026;35.960;2023-04-10T01:40:51;100130.78;;;8.46;64.13
75045;BME280;63614;56.026;35.960;2023-04-10T01:43:25;100116.50;;;8.16;66.72
75045;BME280;63614;56.026;35.960;2023-04-10T01:45:52;100123.06;;;8.02;66.14
75045;BME280;63614;56.026;35.960;2023-04-10T01:48:19;100118.44;;;7.88;65.46
75045;BME280;63614;56.026;35.960;2023-04-10T01:50:45;100118.53;;;7.78;66.11
75045;BME280;63614;56.026;35.960;2023-04-10T01:53:12;100104.78;;;7.77;65.09
75045;BME280;63614;56.026;35.960;2023-04-10T01:55:39;100102.44;;;7.66;66.89
75045;BME280;63614;56.026;35.960;2023-04-10T01:58:08;100103.47;;;7.55;67.34
75045;BME280;63614;56.026;35.960;2023-04-10T02:00:38;100111.47;;;7.62;67.07
75045;BME280;63614;56.026;35.960;2023-04-10T02:03:06;100108.50;;;7.57;66.98
75045;BME280;63614;56.026;35.960;2023-04-10T02:05:51;100103.47;;;7.55;68.71
75045;BME280;63614;56.026;35.960;2023-04-10T02:08:36;100106.97;;;7.46;69.66
75045;BME280;63614;56.026;35.960;2023-04-10T02:11:30;100101.28;;;7.42;67.60
75045;BME280;63614;56.026;35.960;2023-04-10T02:14:00;100093.22;;;7.45;67.23
75045;BME280;63614;56.026;35.960;2023-04-10T02:16:52;100099.72;;;7.50;68.10
75045;BME280;63614;56.026;35.960;2023-04-10T02:19:19;100090.53;;;7.55;66.14
75045;BME280;63614;56.026;35.960;2023-04-10T02:21:47;100088.47;;;7.59;66.19
75045;BME280;63614;56.026;35.960;2023-04-10T02:24:12;100089.50;;;7.66;65.75
75045;BME280;63614;56.026;35.960;2023-04-10T02:26:50;100094.06;;;7.72;65.40
75045;BME280;63614;56.026;35.960;2023-04-10T02:29:17;100093.59;;;7.77;64.90
75045;BME280;63614;56.026;35.960;2023-04-10T02:31:43;100093.81;;;7.84;64.87
75045;BME280;63614;56.026;35.960;2023-04-10T02:34:09;100099.19;;;7.90;65.01
75045;BME280;63614;56.026;35.960;2023-04-10T02:36:38;100089.84;;;7.97;65.17
75045;BME280;63614;56.026;35.960;2023-04-10T02:39:06;100088.59;;;8.02;64.89
75045;BME280;63614;56.026;35.960;2023-04-10T02:41:35;100088.31;;;8.13;65.34
75045;BME280;63614;56.026;35.960;2023-04-10T02:44:02;100096.28;;;8.19;66.02
75045;BME280;63614;56.026;35.960;2023-04-10T02:46:28;100090.47;;;8.26;63.22
75045;BME280;63614;56.026;35.960;2023-04-10T02:48:54;100092.31;;;8.33;63.39
75045;BME280;63614;56.026;35.960;2023-04-10T02:51:20;100086.66;;;8.38;62.29
75045;BME280;63614;56.026;35.960;2023-04-10T02:53:47;100093.28;;;8.41;62.84
75045;BME280;63614;56.026;35.960;2023-04-10T02:56:23;100093.13;;;8.42;62.25
75045;BME280;63614;56.026;35.960;2023-04-10T02:58:50;100087.34;;;8.48;62.25
75045;BME280;63614;56.026;35.960;2023-04-10T03:01:16;100090.63;;;8.50;62.59
75045;BME280;63614;56.026;35.960;2023-04-10T03:03:44;100091.59;;;8.49;63.84
75045;BME280;63614;56.026;35.960;2023-04-10T03:06:12;100087.16;;;8.42;63.98
75045;BME280;63614;56.026;35.960;2023-04-10T03:08:40;100098.31;;;8.42;64.92
75045;BME280;63614;56.026;35.960;2023-04-10T03:11:06;100091.66;;;8.31;65.30
75045;BME280;63614;56.026;35.960;2023-04-10T03:13:32;100089.69;;;8.25;65.59
75045;BME280;63614;56.026;35.960;2023-04-10T03:15:58;100093.00;;;8.09;65.93
75045;BME280;63614;56.026;35.960;2023-04-10T03:18:24;100097.34;;;8.09;66.76
75045;BME280;63614;56.026;35.960;2023-04-10T03:20:51;100099.44;;;8.05;67.10
75045;BME280;63614;56.026;35.960;2023-04-10T03:23:19;100095.41;;;8.03;67.66
75045;BME280;63614;56.026;35.960;2023-04-10T03:25:48;100098.63;;;8.05;67.57
75045;BME280;63614;56.026;35.960;2023-04-10T03:28:16;100103.63;;;7.98;68.20
75045;BME280;63614;56.026;35.960;2023-04-10T03:30:42;100115.25;;;7.94;68.38
75045;BME280;63614;56.026;35.960;2023-04-10T03:33:08;100099.84;;;7.92;68.19
75045;BME280;63614;56.026;35.960;2023-04-10T03:35:33;100108.84;;;8.06;68.38
75045;BME280;63614;56.026;35.960;2023-04-10T03:37:59;100107.88;;;8.07;67.98
75045;BME280;63614;56.026;35.960;2023-04-10T03:40:25;100112.66;;;7.94;68.29
75045;BME280;63614;56.026;35.960;2023-04-10T03:42:51;100110.16;;;7.84;68.40
75045;BME280;63614;56.026;35.960;2023-04-10T03:45:17;100108.13;;;7.96;68.23
75045;BME280;63614;56.026;35.960;2023-04-10T03:47:42;100105.97;;;7.91;68.10
75045;BME280;63614;56.026;35.960;2023-04-10T03:50:11;100102.63;;;7.99;68.05
75045;BME280;63614;56.026;35.960;2023-04-10T03:52:44;100106.22;;;7.98;67.76
75045;BME280;63614;56.026;35.960;2023-04-10T03:55:14;100106.56;;;8.03;67.72
75045;BME280;63614;56.026;35.960;2023-04-10T03:57:45;100109.19;;;8.11;67.96
75045;BME280;63614;56.026;35.960;2023-04-10T04:00:12;100112.16;;;8.25;67.47
75045;BME280;63614;56.026;35.960;2023-04-10T04:02:59;100115.06;;;8.48;67.80
75045;BME280;63614;56.026;35.960;2023-04-10T04:05:43;100118.00;;;9.12;66.55
75045;BME280;63614;56.026;35.960;2023-04-10T04:08:32;100121.56;;;10.02;64.21
75045;BME280;63614;56.026;35.960;2023-04-10T04:11:23;100117.34;;;10.65;61.57
75045;BME280;63614;56.026;35.960;2023-04-10T04:13:52;100121.53;;;11.29;60.18
75045;BME280;63614;56.026;35.960;2023-04-10T04:16:47;100121.03;;;11.86;59.40
75045;BME280;63614;56.026;35.960;2023-04-10T04:19:33;100115.69;;;12.32;56.87
75045;BME280;63614;56.026;35.960;2023-04-10T04:22:14;100119.75;;;12.86;55.12
75045;BME280;63614;56.026;35.960;2023-04-10T04:25:04;100120.78;;;13.29;55.40
75045;BME280;63614;56.026;35.960;2023-04-10T04:27:53;100116.59;;;13.77;53.90
75045;BME280;63614;56.026;35.960;2023-04-10T04:30:44;100116.19;;;14.50;51.65
75045;BME280;63614;56.026;35.960;2023-04-10T04:33:36;100125.94;;;13.65;51.50
75045;BME280;63614;56.026;35.960;2023-04-10T04:36:08;100120.94;;;13.70;51.03
75045;BME280;63614;56.026;35.960;2023-04-10T04:38:54;100123.59;;;14.05;50.78
75045;BME280;63614;56.026;35.960;2023-04-10T04:41:37;100126.56;;;13.95;51.34
75045;BME280;63614;56.026;35.960;2023-04-10T04:44:14;100125.72;;;13.38;51.65
75045;BME280;63614;56.026;35.960;2023-04-10T04:46:57;100120.25;;;13.33;52.48
75045;BME280;63614;56.026;35.960;2023-04-10T04:49:23;100123.50;;;12.99;51.85
75045;BME280;63614;56.026;35.960;2023-04-10T04:52:16;100126.88;;;13.14;52.56
75045;BME280;63614;56.026;35.960;2023-04-10T04:54:46;100131.97;;;12.86;55.98
75045;BME280;63614;56.026;35.960;2023-04-10T04:57:34;100137.38;;;12.48;56.60
75045;BME280;63614;56.026;35.960;2023-04-10T05:00:19;100131.88;;;12.43;56.07
75045;BME280;63614;56.026;35.960;2023-04-10T05:03:13;100139.78;;;12.64;54.92
75045;BME280;63614;56.026;35.960;2023-04-10T05:06:13;100143.00;;;12.81;55.37
75045;BME280;63614;56.026;35.960;2023-04-10T05:09:08;100135.34;;;12.80;53.56
75045;BME280;63614;56.026;35.960;2023-04-10T05:11:54;100142.75;;;12.61;53.56
75045;BME280;63614;56.026;35.960;2023-04-10T05:14:45;100144.66;;;12.23;53.89
75045;BME280;63614;56.026;35.960;2023-04-10T05:17:29;100148.44;;;12.05;54.68
75045;BME280;63614;56.026;35.960;2023-04-10T05:20:15;100151.13;;;11.74;55.65
75045;BME280;63614;56.026;35.960;2023-04-10T05:23:03;100155.66;;;11.57;55.28
75045;BME280;63614;56.026;35.960;2023-04-10T05:25:55;100152.31;;;11.25;55.73
75045;BME280;63614;56.026;35.960;2023-04-10T05:28:39;100149.28;;;11.13;57.26
75045;BME280;63614;56.026;35.960;2023-04-10T05:31:23;100151.72;;;11.15;56.84
75045;BME280;63614;56.026;35.960;2023-04-10T05:33:55;100158.56;;;11.16;56.43
75045;BME280;63614;56.026;35.960;2023-04-10T05:36:31;100152.41;;;11.08;57.22
75045;BME280;63614;56.026;35.960;2023-04-10T05:39:03;100153.38;;;10.76;60.21
75045;BME280;63614;56.026;35.960;2023-04-10T05:41:52;100146.72;;;10.73;59.53
75045;BME280;63614;56.026;35.960;2023-04-10T05:44:27;100149.34;;;10.65;59.53
75045;BME280;63614;56.026;35.960;2023-04-10T05:46:58;100145.50;;;10.61;59.23
75045;BME280;63614;56.026;35.960;2023-04-10T05:49:35;100135.03;;;10.69;58.99
75045;BME280;63614;56.026;35.960;2023-04-10T05:52:14;100137.72;;;10.84;58.44
75045;BME280;63614;56.026;35.960;2023-04-10T05:54:43;100132.53;;;10.84;58.45
75045;BME280;63614;56.026;35.960;2023-04-10T05:57:27;100135.41;;;10.89;57.65
75045;BME280;63614;56.026;35.960;2023-04-10T06:00:19;100133.66;;;11.13;57.38
75045;BME280;63614;56.026;35.960;2023-04-10T06:03:23;100122.97;;;11.08;56.34
75045;BME280;63614;56.026;35.960;2023-04-10T06:05:56;100130.31;;;11.04;56.96
75045;BME280;63614;56.026;35.960;2023-04-10T06:08:23;100143.38;;;11.19;56.07
75045;BME280;63614;56.026;35.960;2023-04-10T06:10:48;100141.91;;;11.25;56.32
75045;BME280;63614;56.026;35.960;2023-04-10T06:13:14;100140.56;;;11.29;57.70
75045;BME280;63614;56.026;35.960;2023-04-10T06:15:40;100145.47;;;11.47;57.78
75045;BME280;63614;56.026;35.960;2023-04-10T06:18:43;100145.13;;;11.50;57.48
75045;BME280;63614;56.026;35.960;2023-04-10T06:21:09;100142.63;;;11.34;57.18
75045;BME280;63614;56.026;35.960;2023-04-10T06:23:35;100140.63;;;11.21;57.49
75045;BME280;63614;56.026;35.960;2023-04-10T06:26:02;100135.41;;;11.21;56.74
75045;BME280;63614;56.026;35.960;2023-04-10T06:28:28;100144.69;;;11.23;56.78
75045;BME280;63614;56.026;35.960;2023-04-10T06:30:59;100142.81;;;11.09;58.25
75045;BME280;63614;56.026;35.960;2023-04-10T06:33:31;100138.91;;;11.05;58.67
75045;BME280;63614;56.026;35.960;2023-04-10T06:35:57;100138.91;;;11.05;58.82
75045;BME280;63614;56.026;35.960;2023-04-10T06:38:23;100142.09;;;11.15;58.59
75045;BME280;63614;56.026;35.960;2023-04-10T06:40:49;100147.28;;;11.23;58.22
75045;BME280;63614;56.026;35.960;2023-04-10T06:43:15;100149.13;;;11.38;58.24
75045;BME280;63614;56.026;35.960;2023-04-10T06:45:41;100160.56;;;11.52;57.65
75045;BME280;63614;56.026;35.960;2023-04-10T06:48:07;100153.06;;;11.57;58.24
75045;BME280;63614;56.026;35.960;2023-04-10T06:50:33;100161.91;;;11.71;59.55
75045;BME280;63614;56.026;35.960;2023-04-10T06:52:58;100157.72;;;11.61;58.86
75045;BME280;63614;56.026;35.960;2023-04-10T06:55:25;100165.38;;;11.63;58.61
75045;BME280;63614;56.026;35.960;2023-04-10T06:57:51;100162.94;;;11.61;58.59
75045;BME280;63614;56.026;35.960;2023-04-10T07:00:18;100155.44;;;11.67;58.34
75045;BME280;63614;56.026;35.960;2023-04-10T07:02:44;100155.53;;;11.50;59.15
75045;BME280;63614;56.026;35.960;2023-04-10T07:05:10;100162.75;;;11.63;59.41
75045;BME280;63614;56.026;35.960;2023-04-10T07:07:36;100159.13;;;11.72;58.17
75045;BME280;63614;56.026;35.960;2023-04-10T07:10:20;100161.59;;;11.89;56.89
75045;BME280;63614;56.026;35.960;2023-04-10T07:12:46;100153.56;;;12.13;56.15
75045;BME280;63614;56.026;35.960;2023-04-10T07:15:11;100142.41;;;12.49;54.70
75045;BME280;63614;56.026;35.960;2023-04-10T07:17:37;100137.78;;;12.66;54.00
75045;BME280;63614;56.026;35.960;2023-04-10T07:20:04;100140.41;;;12.81;52.42
75045;BME280;63614;56.026;35.960;2023-04-10T07:22:30;100133.31;;;12.45;52.79
75045;BME280;63614;56.026;35.960;2023-04-10T07:24:57;100144.09;;;12.57;52.39
75045;BME280;63614;56.026;35.960;2023-04-10T07:27:23;100143.75;;;12.60;52.42
75045;BME280;63614;56.026;35.960;2023-04-10T07:29:51;100142.25;;;12.87;51.74
75045;BME280;63614;56.026;35.960;2023-04-10T07:32:18;100145.38;;;12.61;52.38
75045;BME280;63614;56.026;35.960;2023-04-10T07:34:44;100145.88;;;12.86;53.42
75045;BME280;63614;56.026;35.960;2023-04-10T07:37:10;100149.28;;;12.87;53.13
75045;BME280;63614;56.026;35.960;2023-04-10T07:39:36;100150.19;;;12.94;51.99
75045;BME280;63614;56.026;35.960;2023-04-10T07:42:01;100147.09;;;12.90;51.92
75045;BME280;63614;56.026;35.960;2023-04-10T07:44:27;100138.75;;;13.17;52.15
75045;BME280;63614;56.026;35.960;2023-04-10T07:46:53;100141.94;;;13.34;51.02
75045;BME280;63614;56.026;35.960;2023-04-10T07:49:20;100141.25;;;13.68;51.56
75045;BME280;63614;56.026;35.960;2023-04-10T07:51:46;100139.31;;;14.12;49.01
75045;BME280;63614;56.026;35.960;2023-04-10T07:54:11;100143.34;;;14.43;49.24
75045;BME280;63614;56.026;35.960;2023-04-10T07:56:37;100145.38;;;14.47;47.24
75045;BME280;63614;56.026;35.960;2023-04-10T07:59:04;100137.22;;;14.29;48.01
75045;BME280;63614;56.026;35.960;2023-04-10T08:01:30;100134.19;;;14.60;46.91
75045;BME280;63614;56.026;35.960;2023-04-10T08:03:56;100138.25;;;14.69;44.12
75045;BME280;63614;56.026;35.960;2023-04-10T08:06:22;100133.53;;;15.06;43.60
75045;BME280;63614;56.026;35.960;2023-04-10T08:08:48;100129.13;;;15.27;44.21
75045;BME280;63614;56.026;35.960;2023-04-10T08:11:34;100129.94;;;15.34;40.29
75045;BME280;63614;56.026;35.960;2023-04-10T08:14:02;100135.34;;;15.13;40.75
75045;BME280;63614;56.026;35.960;2023-04-10T08:16:29;100136.16;;;15.13;42.65
75045;BME280;63614;56.026;35.960;2023-04-10T08:18:55;100127.22;;;14.87;41.17
75045;BME280;63614;56.026;35.960;2023-04-10T08:21:25;100135.69;;;14.96;41.75
75045;BME280;63614;56.026;35.960;2023-04-10T08:23:59;100134.38;;;15.27;42.03
75045;BME280;63614;56.026;35.960;2023-04-10T08:26:26;100131.94;;;15.46;41.36
75045;BME280;63614;56.026;35.960;2023-04-10T08:28:54;100127.31;;;15.34;40.19
75045;BME280;63614;56.026;35.960;2023-04-10T08:31:22;100138.00;;;15.39;41.14
75045;BME280;63614;56.026;35.960;2023-04-10T08:33:49;100134.38;;;15.34;40.62
75045;BME280;63614;56.026;35.960;2023-04-10T08:36:16;100128.94;;;15.42;40.87
75045;BME280;63614;56.026;35.960;2023-04-10T08:38:43;100121.66;;;15.37;41.15
75045;BME280;63614;56.026;35.960;2023-04-10T08:41:10;100122.06;;;15.28;39.74
75045;BME280;63614;56.026;35.960;2023-04-10T08:43:37;100122.84;;;15.21;41.58
75045;BME280;63614;56.026;35.960;2023-04-10T08:46:03;100125.72;;;15.47;40.61
75045;BME280;63614;56.026;35.960;2023-04-10T08:48:52;100116.81;;;15.68;39.91
75045;BME280;63614;56.026;35.960;2023-04-10T08:51:19;100108.75;;;15.49;38.31
75045;BME280;63614;56.026;35.960;2023-04-10T08:53:49;100122.47;;;15.51;37.62
75045;BME280;63614;56.026;35.960;2023-04-10T08:56:16;100114.00;;;15.56;37.74
75045;BME280;63614;56.026;35.960;2023-04-10T08:58:42;100117.44;;;15.63;38.51
75045;BME280;63614;56.026;35.960;2023-04-10T09:01:09;100116.22;;;15.66;37.63
75045;BME280;63614;56.026;35.960;2023-04-10T09:06:20;100121.66;;;15.31;37.37
75045;BME280;63614;56.026;35.960;2023-04-10T09:08:46;100114.19;;;15.41;37.93
75045;BME280;63614;56.026;35.960;2023-04-10T09:11:12;100113.78;;;15.31;38.56
75045;BME280;63614;56.026;35.960;2023-04-10T09:13:42;100113.16;;;15.22;40.01
75045;BME280;63614;56.026;35.960;2023-04-10T09:16:09;100110.38;;;15.57;38.67
75045;BME280;63614;56.026;35.960;2023-04-10T09:19:02;100115.22;;;15.60;37.97
75045;BME280;63614;56.026;35.960;2023-04-10T09:21:27;100112.41;;;15.48;37.97
75045;BME280;63614;56.026;35.960;2023-04-10T09:23:59;100115.19;;;15.33;38.32
75045;BME280;63614;56.026;35.960;2023-04-10T09:26:32;100113.75;;;14.91;38.29
75045;BME280;63614;56.026;35.960;2023-04-10T09:29:01;100112.91;;;14.90;38.52
75045;BME280;63614;56.026;35.960;2023-04-10T09:31:35;100118.00;;;15.05;37.95
75045;BME280;63614;56.026;35.960;2023-04-10T09:36:33;100109.56;;;15.56;37.35
75045;BME280;63614;56.026;35.960;2023-04-10T09:38:59;100113.78;;;15.44;37.40
75045;BME280;63614;56.026;35.960;2023-04-10T09:41:25;100113.00;;;15.37;36.67
75045;BME280;63614;56.026;35.960;2023-04-10T09:44:04;100105.94;;;15.57;36.69
75045;BME280;63614;56.026;35.960;2023-04-10T09:46:31;100101.47;;;15.71;36.39
75045;BME280;63614;56.026;35.960;2023-04-10T09:48:57;100101.69;;;15.90;37.06
75045;BME280;63614;56.026;35.960;2023-04-10T09:51:35;100102.66;;;16.09;36.13
75045;BME280;63614;56.026;35.960;2023-04-10T09:54:04;100103.50;;;15.83;35.21
75045;BME280;63614;56.026;35.960;2023-04-10T09:56:33;100102.50;;;15.50;36.40
75045;BME280;63614;56.026;35.960;2023-04-10T09:59:19;100094.84;;;15.69;36.32
75045;BME280;63614;56.026;35.960;2023-04-10T10:01:45;100102.06;;;16.00;36.09
75045;BME280;63614;56.026;35.960;2023-04-10T10:04:48;100103.41;;;16.29;35.41
75045;BME280;63614;56.026;35.960;2023-04-10T10:07:33;100086.34;;;16.07;35.57
75045;BME280;63614;56.026;35.960;2023-04-10T10:10:01;100092.81;;;15.77;37.47
75045;BME280;63614;56.026;35.960;2023-04-10T10:12:48;100085.34;;;15.94;36.57
75045;BME280;63614;56.026;35.960;2023-04-10T10:20:33;100089.22;;;15.32;38.28
75045;BME280;63614;56.026;35.960;2023-04-10T10:23:02;100097.06;;;15.38;38.58
75045;BME280;63614;56.026;35.960;2023-04-10T10:25:30;100092.44;;;15.27;38.55
75045;BME280;63614;56.026;35.960;2023-04-10T10:27:55;100094.03;;;15.28;38.30
75045;BME280;63614;56.026;35.960;2023-04-10T10:30:24;100088.38;;;15.11;38.58
75045;BME280;63614;56.026;35.960;2023-04-10T10:32:50;100096.84;;;15.13;39.11
75045;BME280;63614;56.026;35.960;2023-04-10T10:35:17;100091.75;;;14.92;38.73
75045;BME280;63614;56.026;35.960;2023-04-10T10:37:43;100097.44;;;15.02;38.10
75045;BME280;63614;56.026;35.960;2023-04-10T10:40:16;100099.25;;;15.01;37.90
75045;BME280;63614;56.026;35.960;2023-04-10T10:45:55;100114.00;;;13.84;41.53
75045;BME280;63614;56.026;35.960;2023-04-10T10:48:24;100105.75;;;13.80;42.36
75045;BME280;63614;56.026;35.960;2023-04-10T10:50:56;100100.09;;;13.77;43.22
75045;BME280;63614;56.026;35.960;2023-04-10T10:53:42;100101.13;;;13.54;42.54
75045;BME280;63614;56.026;35.960;2023-04-10T10:58:54;100103.81;;;13.61;42.48
75045;BME280;63614;56.026;35.960;2023-04-10T11:01:22;100101.13;;;13.54;43.25
75045;BME280;63614;56.026;35.960;2023-04-10T11:03:48;100094.94;;;13.62;42.62
75045;BME280;63614;56.026;35.960;2023-04-10T11:06:18;100091.72;;;13.60;42.70
75045;BME280;63614;56.026;35.960;2023-04-10T11:08:49;100083.97;;;13.45;42.40
75045;BME280;63614;56.026;35.960;2023-04-10T11:11:24;100085.81;;;13.51;42.25
75045;BME280;63614;56.026;35.960;2023-04-10T11:16:18;100076.78;;;13.54;42.21
75045;BME280;63614;56.026;35.960;2023-04-10T11:21:14;100073.34;;;13.47;41.67
75045;BME280;63614;56.026;35.960;2023-04-10T11:31:54;100065.56;;;13.10;43.33
75045;BME280;63614;56.026;35.960;2023-04-10T11:34:21;100068.59;;;12.92;43.42
75045;BME280;63614;56.026;35.960;2023-04-10T11:36:46;100060.44;;;12.80;43.54
75045;BME280;63614;56.026;35.960;2023-04-10T11:39:13;100066.34;;;12.89;43.47
75045;BME280;63614;56.026;35.960;2023-04-10T11:41:45;100062.56;;;12.92;43.68
75045;BME280;63614;56.026;35.960;2023-04-10T11:44:25;100070.97;;;13.08;43.76
75045;BME280;63614;56.026;35.960;2023-04-10T11:46:52;100068.59;;;13.14;43.25
75045;BME280;63614;56.026;35.960;2023-04-10T11:49:22;100069.34;;;13.29;43.15
75045;BME280;63614;56.026;35.960;2023-04-10T11:51:50;100063.63;;;13.40;43.05
75045;BME280;63614;56.026;35.960;2023-04-10T11:54:20;100068.72;;;13.49;43.48
75045;BME280;63614;56.026;35.960;2023-04-10T11:59:49;100068.44;;;13.65;43.81
75045;BME280;63614;56.026;35.960;2023-04-10T12:02:15;100063.00;;;13.67;44.32
75045;BME280;63614;56.026;35.960;2023-04-10T12:04:42;100060.00;;;13.70;44.65
75045;BME280;63614;56.026;35.960;2023-04-10T12:07:09;100060.63;;;13.72;44.07
75045;BME280;63614;56.026;35.960;2023-04-10T12:09:35;100052.69;;;13.87;43.54
75045;BME280;63614;56.026;35.960;2023-04-10T12:12:03;100053.72;;;13.92;43.45
75045;BME280;63614;56.026;35.960;2023-04-10T12:17:00;100046.81;;;13.85;43.50
75045;BME280;63614;56.026;35.960;2023-04-10T12:19:28;100048.22;;;13.80;43.73
75045;BME280;63614;56.026;35.960;2023-04-10T12:21:56;100041.53;;;13.71;43.19
75045;BME280;63614;56.026;35.960;2023-04-10T12:27:23;100040.03;;;13.90;43.80
75045;BME280;63614;56.026;35.960;2023-04-10T12:29:54;100032.78;;;13.92;43.79
75045;BME280;63614;56.026;35.960;2023-04-10T12:32:21;100034.84;;;14.04;42.76
75045;BME280;63614;56.026;35.960;2023-04-10T12:34:53;100032.72;;;14.14;42.70
75045;BME280;63614;56.026;35.960;2023-04-10T12:37:24;100027.66;;;14.12;41.90
75045;BME280;63614;56.026;35.960;2023-04-10T12:39:50;100017.81;;;14.14;41.79
75045;BME280;63614;56.026;35.960;2023-04-10T12:42:19;100029.69;;;14.17;42.38
75045;BME280;63614;56.026;35.960;2023-04-10T12:45:04;100013.53;;;14.00;42.77
75045;BME280;63614;56.026;35.960;2023-04-10T12:47:48;100023.00;;;14.08;42.75
75045;BME280;63614;56.026;35.960;2023-04-10T12:50:17;100015.66;;;14.31;42.43
75045;BME280;63614;56.026;35.960;2023-04-10T12:53:01;100015.03;;;14.29;43.14
75045;BME280;63614;56.026;35.960;2023-04-10T12:55:27;100011.44;;;14.30;42.01
75045;BME280;63614;56.026;35.960;2023-04-10T12:57:55;100014.41;;;14.21;42.31
75045;BME280;63614;56.026;35.960;2023-04-10T13:00:22;100007.91;;;14.03;42.93
75045;BME280;63614;56.026;35.960;2023-04-10T13:03:06;100021.75;;;13.97;43.02
75045;BME280;63614;56.026;35.960;2023-04-10T13:05:32;100012.91;;;13.98;43.07
75045;BME280;63614;56.026;35.960;2023-04-10T13:07:58;100013.22;;;13.81;43.62
75045;BME280;63614;56.026;35.960;2023-04-10T13:10:24;100020.47;;;13.86;42.95
75045;BME280;63614;56.026;35.960;2023-04-10T13:12:51;100017.03;;;13.79;43.10
75045;BME280;63614;56.026;35.960;2023-04-10T13:15:16;100017.78;;;13.38;44.68
75045;BME280;63614;56.026;35.960;2023-04-10T13:17:42;100032.34;;;12.61;46.74
75045;BME280;63614;56.026;35.960;2023-04-10T13:20:09;100050.66;;;12.31;47.85
75045;BME280;63614;56.026;35.960;2023-04-10T13:22:35;100027.41;;;11.99;48.23
75045;BME280;63614;56.026;35.960;2023-04-10T13:25:01;100040.59;;;11.83;49.05
75045;BME280;63614;56.026;35.960;2023-04-10T13:27:28;100036.72;;;11.79;49.03
75045;BME280;63614;56.026;35.960;2023-04-10T13:29:54;100037.34;;;11.66;49.45
75045;BME280;63614;56.026;35.960;2023-04-10T13:32:20;100033.22;;;11.57;49.64
75045;BME280;63614;56.026;35.960;2023-04-10T13:34:46;100039.59;;;11.54;49.84
75045;BME280;63614;56.026;35.960;2023-04-10T13:37:11;100031.75;;;11.54;50.08
75045;BME280;63614;56.026;35.960;2023-04-10T13:39:38;100036.28;;;11.60;49.65
75045;BME280;63614;56.026;35.960;2023-04-10T13:42:04;100035.00;;;11.56;49.90
75045;BME280;63614;56.026;35.960;2023-04-10T13:44:30;100038.88;;;11.60;50.18
75045;BME280;63614;56.026;35.960;2023-04-10T13:46:55;100040.28;;;11.48;50.03
75045;BME280;63614;56.026;35.960;2023-04-10T13:49:22;100042.19;;;11.54;50.25
75045;BME280;63614;56.026;35.960;2023-04-10T13:51:48;100036.31;;;11.37;50.78
75045;BME280;63614;56.026;35.960;2023-04-10T13:54:14;100036.13;;;11.39;50.85
75045;BME280;63614;56.026;35.960;2023-04-10T13:56:44;100034.28;;;11.48;50.55